createdAt,value
2019-05-26T00:03:02.245Z,15.30
2019-05-26T00:08:04.708Z,15.40
2019-05-26T00:13:07.115Z,15.40
2019-05-26T00:18:09.651Z,15.30
2019-05-26T00:23:12.123Z,15.30
2019-05-26T00:28:15.539Z,15.30
2019-05-26T00:33:17.971Z,15.30
2019-05-26T00:38:20.577Z,15.30
2019-05-26T00:43:23.054Z,15.40
2019-05-26T00:48:26.868Z,15.40
2019-05-26T00:53:29.352Z,15.20
2019-05-26T00:58:32.116Z,15.20
2019-05-26T01:03:34.600Z,15.20
2019-05-26T01:08:37.218Z,15.10
2019-05-26T01:13:39.936Z,15.10
2019-05-26T01:18:42.381Z,15.00
2019-05-26T01:23:45.351Z,14.80
2019-05-26T01:28:47.756Z,14.50
2019-05-26T01:33:50.151Z,14.30
2019-05-26T01:38:53.356Z,14.10
2019-05-26T01:43:55.771Z,13.90
2019-05-26T01:48:58.424Z,13.70
2019-05-26T01:54:01.858Z,13.50
2019-05-26T01:59:04.401Z,13.40
2019-05-26T02:04:06.952Z,13.30
2019-05-26T02:09:09.354Z,13.10
2019-05-26T02:14:14.532Z,13.00
2019-05-26T02:19:15.979Z,12.80
2019-05-26T02:24:19.107Z,12.70
2019-05-26T02:29:21.519Z,12.50
2019-05-26T02:34:23.998Z,12.30
2019-05-26T02:39:26.369Z,12.10
2019-05-26T02:44:28.777Z,11.90
2019-05-26T02:49:31.180Z,11.80
2019-05-26T02:54:33.654Z,11.60
2019-05-26T02:59:36.105Z,11.50
2019-05-26T03:04:40.323Z,11.40
2019-05-26T03:09:44.921Z,11.30
2019-05-26T03:14:49.572Z,11.20
2019-05-26T03:19:54.748Z,11.20
2019-05-26T03:24:59.809Z,11.40
2019-05-26T03:30:02.380Z,11.50
2019-05-26T03:35:06.273Z,11.80
2019-05-26T03:40:09.321Z,12.00
2019-05-26T03:45:22.867Z,12.30
2019-05-26T03:50:25.837Z,12.50
2019-05-26T03:55:28.384Z,12.70
2019-05-26T04:00:30.974Z,13.00
2019-05-26T04:05:33.492Z,13.20
2019-05-26T04:10:35.947Z,13.40
2019-05-26T04:15:38.338Z,13.70
2019-05-26T04:20:45.518Z,13.90
2019-05-26T04:25:45.080Z,14.10
2019-05-26T04:30:47.572Z,14.30
2019-05-26T04:35:49.965Z,14.50
2019-05-26T04:40:52.436Z,14.70
2019-05-26T04:45:54.827Z,14.90
2019-05-26T04:50:57.276Z,15.10
2019-05-26T04:55:59.711Z,15.30
2019-05-26T05:01:02.129Z,15.50
2019-05-26T05:06:04.686Z,15.70
2019-05-26T05:11:07.167Z,15.60
2019-05-26T05:16:09.648Z,15.40
2019-05-26T05:21:12.020Z,15.50
2019-05-26T05:26:14.751Z,15.50
2019-05-26T05:43:20.163Z,15.30
2019-05-26T05:48:23.251Z,15.30
2019-05-26T05:53:25.687Z,15.40
2019-05-26T05:58:28.034Z,15.60
2019-05-26T06:03:30.639Z,15.80
2019-05-26T06:08:33.011Z,16.00
2019-05-26T06:13:35.316Z,16.20
2019-05-26T06:18:37.751Z,16.40
2019-05-26T06:23:40.189Z,16.60
2019-05-26T06:28:42.720Z,16.90
2019-05-26T06:33:46.480Z,17.20
2019-05-26T06:38:50.203Z,17.40
2019-05-26T06:44:01.515Z,17.70
2019-05-26T06:49:17.467Z,17.90
2019-05-26T06:54:50.776Z,18.10
2019-05-26T07:00:38.952Z,18.40
2019-05-26T07:05:41.513Z,18.70
2019-05-26T07:22:47.061Z,19.10
2019-05-26T07:27:49.448Z,19.50
2019-05-26T07:33:28.027Z,19.80
2019-05-26T07:38:51.503Z,19.90
2019-05-26T07:43:54.672Z,20.10
2019-05-26T07:48:57.049Z,20.30
2019-05-26T07:54:27.824Z,20.40
2019-05-26T07:59:31.120Z,20.60
2019-05-26T08:04:33.641Z,20.80
2019-05-26T08:09:36.389Z,20.90
2019-05-26T08:14:40.930Z,21.10
2019-05-26T08:19:43.339Z,21.20
2019-05-26T08:24:47.024Z,21.40
2019-05-26T08:29:49.752Z,21.50
2019-05-26T08:34:52.551Z,21.70
2019-05-26T08:39:58.317Z,21.90
2019-05-26T08:45:01.005Z,22.00
2019-05-26T08:50:05.429Z,22.20
2019-05-26T09:01:03.536Z,22.90
2019-05-26T09:06:06.115Z,23.30
2019-05-26T09:11:08.664Z,23.20
2019-05-26T09:16:12.303Z,23.40
2019-05-26T09:21:14.970Z,23.90
2019-05-26T09:26:17.548Z,24.10
2019-05-26T09:31:20.765Z,24.10
2019-05-26T09:36:23.241Z,24.20
2019-05-26T09:41:26.196Z,23.70
2019-05-26T09:46:28.778Z,23.60
2019-05-26T09:51:31.271Z,23.80
2019-05-26T09:56:33.702Z,24.20
2019-05-26T10:01:38.249Z,25.00
2019-05-26T10:06:41.814Z,25.20
2019-05-26T10:11:45.649Z,25.20
2019-05-26T10:17:08.393Z,25.60
2019-05-26T10:22:12.709Z,26.00
2019-05-26T10:27:15.345Z,26.40
2019-05-26T10:32:17.844Z,26.50
2019-05-26T10:37:20.243Z,26.60
2019-05-26T10:42:22.804Z,26.90
2019-05-26T10:47:25.222Z,27.10
2019-05-26T10:52:31.606Z,27.70
2019-05-26T10:57:34.219Z,28.80
2019-05-26T11:02:36.822Z,29.30
2019-05-26T11:07:39.356Z,29.60
2019-05-26T11:12:43.156Z,29.10
2019-05-26T11:17:45.715Z,28.30
2019-05-26T11:22:48.218Z,27.60
2019-05-26T11:27:50.798Z,26.90
2019-05-26T11:32:53.763Z,26.50
2019-05-26T11:37:56.960Z,26.80
2019-05-26T11:43:15.637Z,26.80
2019-05-26T11:48:06.746Z,26.90
2019-05-26T11:53:09.310Z,27.20
2019-05-26T11:58:11.941Z,27.60
2019-05-26T12:03:21.962Z,27.20
2019-05-26T12:08:24.804Z,27.60
2019-05-26T12:13:27.190Z,28.00
2019-05-26T12:18:30.342Z,27.30
2019-05-26T12:23:32.808Z,26.70
2019-05-26T12:28:35.248Z,27.10
2019-05-26T12:33:37.673Z,27.60
2019-05-26T12:38:52.075Z,27.90
2019-05-26T12:43:54.887Z,28.00
2019-05-26T12:48:58.322Z,27.70
2019-05-26T12:54:00.756Z,27.60
2019-05-26T12:59:03.529Z,27.10
2019-05-26T13:04:06.011Z,26.90
2019-05-26T13:09:11.217Z,27.10
2019-05-26T13:14:13.703Z,27.20
2019-05-26T13:19:17.903Z,27.40
2019-05-26T13:24:20.394Z,27.20
2019-05-26T13:29:25.708Z,27.50
2019-05-26T13:34:27.229Z,27.80
2019-05-26T13:39:29.810Z,28.60
2019-05-26T13:44:32.499Z,32.20
2019-05-26T13:49:35.306Z,34.80
2019-05-26T13:54:39.904Z,35.50
2019-05-26T14:05:57.798Z,35.20
2019-05-26T14:11:20.518Z,35.70
2019-05-26T14:16:33.809Z,38.50
2019-05-26T14:21:36.553Z,38.50
2019-05-26T14:26:39.291Z,35.00
2019-05-26T14:31:52.870Z,36.00
2019-05-26T14:36:54.660Z,40.00
2019-05-26T14:41:57.254Z,40.60
2019-05-26T14:46:59.768Z,37.20
2019-05-26T14:52:02.266Z,36.40
2019-05-26T14:57:06.685Z,40.00
2019-05-26T15:02:19.959Z,38.30
2019-05-26T15:07:23.444Z,36.50
2019-05-26T15:12:27.085Z,34.70
2019-05-26T15:17:32.378Z,34.60
2019-05-26T15:22:35.128Z,34.00
2019-05-26T15:27:37.765Z,32.40
2019-05-26T15:32:40.215Z,30.80
2019-05-26T15:37:44.528Z,30.60
2019-05-26T15:42:48.234Z,30.60
2019-05-26T15:47:50.643Z,29.30
2019-05-26T15:52:53.039Z,28.50
2019-05-26T15:57:55.359Z,29.60
2019-05-26T16:02:57.999Z,31.10
2019-05-26T16:08:00.379Z,32.90
2019-05-26T16:13:02.953Z,32.30
2019-05-26T16:18:05.439Z,32.80
2019-05-26T16:23:09.142Z,36.30
2019-05-26T16:28:11.921Z,39.10
2019-05-26T16:33:14.373Z,36.60
2019-05-26T16:38:16.988Z,37.40
2019-05-26T16:43:20.176Z,38.40
2019-05-26T16:48:22.711Z,38.90
2019-05-26T16:53:25.345Z,39.20
2019-05-26T16:58:27.796Z,39.00
2019-05-26T17:03:30.331Z,37.00
2019-05-26T17:08:33.163Z,34.60
2019-05-26T17:13:37.700Z,33.70
2019-05-26T17:18:41.315Z,33.80
2019-05-26T17:23:44.072Z,33.60
2019-05-26T17:28:46.805Z,33.20
2019-05-26T17:33:50.292Z,32.60
2019-05-26T17:38:53.116Z,32.00
2019-05-26T17:43:57.600Z,31.00
2019-05-26T17:49:00.211Z,29.40
2019-05-26T17:54:02.834Z,27.90
2019-05-26T17:59:05.412Z,26.40
2019-05-26T18:04:07.871Z,25.10
2019-05-26T18:09:10.650Z,24.00
2019-05-26T18:14:13.065Z,23.00
2019-05-26T18:19:16.512Z,22.20
2019-05-26T18:24:18.901Z,21.50
2019-05-26T18:29:21.405Z,20.90
2019-05-26T18:34:24.599Z,20.30
2019-05-26T18:39:26.907Z,19.70
2019-05-26T18:44:29.355Z,19.20
2019-05-26T18:49:31.853Z,18.70
2019-05-26T18:54:34.535Z,18.30
2019-05-26T18:59:36.973Z,17.90
2019-05-26T19:04:40.355Z,17.60
2019-05-26T19:09:43.248Z,17.30
2019-05-26T19:14:45.930Z,17.00
2019-05-26T19:19:48.932Z,16.70
2019-05-26T19:24:51.299Z,16.40
2019-05-26T19:29:53.719Z,16.20
2019-05-26T19:34:57.116Z,16.00
2019-05-26T19:40:02.679Z,15.80
2019-05-26T19:45:06.068Z,15.60
2019-05-26T19:50:09.137Z,15.50
2019-05-26T19:55:11.611Z,15.40
2019-05-26T20:00:17.031Z,15.30
2019-05-26T20:05:21.935Z,15.20
2019-05-26T20:10:25.841Z,15.00
2019-05-26T20:15:29.083Z,14.80
2019-05-26T20:21:17.623Z,14.70
2019-05-26T20:26:20.406Z,14.60
2019-05-26T20:31:22.796Z,14.40
2019-05-26T20:36:25.328Z,14.30
2019-05-26T20:41:27.942Z,14.20
2019-05-26T20:46:30.864Z,14.10
2019-05-26T20:51:33.471Z,14.00
2019-05-26T20:56:35.970Z,13.80
2019-05-26T21:01:38.601Z,13.70
2019-05-26T21:06:41.530Z,13.60
2019-05-26T21:11:45.530Z,13.60
2019-05-26T21:16:56.921Z,13.40
2019-05-26T21:21:59.748Z,13.40
2019-05-26T21:32:39.763Z,13.10
2019-05-26T21:37:42.380Z,13.00
2019-05-26T21:42:44.991Z,12.90
2019-05-26T21:47:47.459Z,12.80
2019-05-26T21:52:50.847Z,12.70
2019-05-26T21:57:53.388Z,12.60
2019-05-26T22:02:56.147Z,12.50
2019-05-26T22:07:58.728Z,12.30
2019-05-26T22:24:34.880Z,12.40
2019-05-26T22:29:40.723Z,12.50
2019-05-26T22:34:43.338Z,12.60
2019-05-26T22:39:46.276Z,12.70
2019-05-26T22:44:49.137Z,12.70
2019-05-26T22:49:51.821Z,12.90
2019-05-26T22:54:54.903Z,12.90
2019-05-26T23:00:00.921Z,12.90
2019-05-26T23:05:03.894Z,12.90
2019-05-26T23:10:07.257Z,12.90
2019-05-26T23:26:23.793Z,12.90
2019-05-26T23:31:26.521Z,12.80
2019-05-26T23:36:29.874Z,12.60
2019-05-26T23:41:32.653Z,12.50
2019-05-26T23:46:35.407Z,12.40
2019-05-26T23:51:37.979Z,12.30
2019-05-26T23:56:58.962Z,12.10
